Weather at Van Norman's Airport

Public forecast

Using degrees Fahrenheit for public forecast. Weather courtesy of forecast.io.

Closest aviation weather report (METAR) to Van Norman's Airport

Closest report is Winona Municipal-Max Conrad Field, 16.7 nm (30.9 km) E. Retrieved 2021/06/25 02:35 UTC (12 minutes ago):

KONA 250235Z AUTO 00000KT 10SM BKN034 BKN050 BKN065 24/20 A2981 RMK AO2 LTG DSNT E AND SE

Closest aviation forecast (TAF) to Van Norman's Airport

Closest forecast is Rochester International Airport, 19.5 nm (36.1 km) WSW. Retrieved 2021-06-25 00:24 UTC (2 hours ago):

TAF KRST 242323Z 2500/2524 31007KT P6SM SCT040 FM250800 03005KT 5SM BR BKN015 FM251400 03009KT P6SM BKN200